sensor_id;sensor_type;location;lat;lon;timestamp;temperature;humidity
46085;DHT22;31823;47.032;8.310;2023-12-20T00:01:04;1.60;99.90
46085;DHT22;31823;47.032;8.310;2023-12-20T00:03:29;1.70;99.90
46085;DHT22;31823;47.032;8.310;2023-12-20T00:05:55;1.60;99.90
46085;DHT22;31823;47.032;8.310;2023-12-20T00:08:21;1.60;99.90
46085;DHT22;31823;47.032;8.310;2023-12-20T00:10:47;1.50;99.90
46085;DHT22;31823;47.032;8.310;2023-12-20T00:13:12;1.60;99.90
46085;DHT22;31823;47.032;8.310;2023-12-20T00:15:38;1.60;99.90
46085;DHT22;31823;47.032;8.310;2023-12-20T00:18:04;1.60;99.90
46085;DHT22;31823;47.032;8.310;2023-12-20T00:20:29;1.60;99.90
46085;DHT22;31823;47.032;8.310;2023-12-20T00:22:58;1.60;99.90
46085;DHT22;31823;47.032;8.310;2023-12-20T00:25:24;1.70;99.90
46085;DHT22;31823;47.032;8.310;2023-12-20T00:27:50;1.70;99.90
46085;DHT22;31823;47.032;8.310;2023-12-20T00:30:16;1.70;99.90
46085;DHT22;31823;47.032;8.310;2023-12-20T00:32:41;1.60;99.90
46085;DHT22;31823;47.032;8.310;2023-12-20T00:35:15;1.70;99.90
46085;DHT22;31823;47.032;8.310;2023-12-20T00:37:42;1.70;99.90
46085;DHT22;31823;47.032;8.310;2023-12-20T00:40:08;1.70;99.90
46085;DHT22;31823;47.032;8.310;2023-12-20T00:42:37;1.70;99.90
46085;DHT22;31823;47.032;8.310;2023-12-20T00:45:03;1.80;99.90
46085;DHT22;31823;47.032;8.310;2023-12-20T00:47:30;2.00;99.90
46085;DHT22;31823;47.032;8.310;2023-12-20T00:49:56;2.10;99.90
46085;DHT22;31823;47.032;8.310;2023-12-20T00:52:22;2.20;99.90
46085;DHT22;31823;47.032;8.310;2023-12-20T00:54:48;2.20;99.90
46085;DHT22;31823;47.032;8.310;2023-12-20T00:57:14;2.20;99.90
46085;DHT22;31823;47.032;8.310;2023-12-20T00:59:39;2.20;99.90
46085;DHT22;31823;47.032;8.310;2023-12-20T01:02:05;2.20;99.90
46085;DHT22;31823;47.032;8.310;2023-12-20T01:04:30;2.30;99.90
46085;DHT22;31823;47.032;8.310;2023-12-20T01:06:56;2.30;99.90
46085;DHT22;31823;47.032;8.310;2023-12-20T01:09:22;2.20;99.90
46085;DHT22;31823;47.032;8.310;2023-12-20T01:11:52;2.20;99.90
46085;DHT22;31823;47.032;8.310;2023-12-20T01:14:18;2.20;99.90
46085;DHT22;31823;47.032;8.310;2023-12-20T01:16:43;2.10;99.90
46085;DHT22;31823;47.032;8.310;2023-12-20T01:19:09;2.10;99.90
46085;DHT22;31823;47.032;8.310;2023-12-20T01:21:35;2.10;99.90
46085;DHT22;31823;47.032;8.310;2023-12-20T01:24:01;2.10;99.90
46085;DHT22;31823;47.032;8.310;2023-12-20T01:26:26;2.30;99.90
46085;DHT22;31823;47.032;8.310;2023-12-20T01:28:53;2.50;99.90
46085;DHT22;31823;47.032;8.310;2023-12-20T01:31:18;2.70;99.90
46085;DHT22;31823;47.032;8.310;2023-12-20T01:33:44;2.60;99.90
46085;DHT22;31823;47.032;8.310;2023-12-20T01:36:10;2.40;99.90
46085;DHT22;31823;47.032;8.310;2023-12-20T01:38:36;2.40;99.90
46085;DHT22;31823;47.032;8.310;2023-12-20T01:41:02;2.40;99.90
46085;DHT22;31823;47.032;8.310;2023-12-20T01:43:29;2.40;99.90
46085;DHT22;31823;47.032;8.310;2023-12-20T01:45:56;2.50;99.90
46085;DHT22;31823;47.032;8.310;2023-12-20T01:48:23;2.50;99.90
46085;DHT22;31823;47.032;8.310;2023-12-20T01:50:49;2.40;99.90
46085;DHT22;31823;47.032;8.310;2023-12-20T01:53:15;2.30;99.90
46085;DHT22;31823;47.032;8.310;2023-12-20T01:55:41;2.30;99.90
46085;DHT22;31823;47.032;8.310;2023-12-20T01:58:09;2.30;99.90
46085;DHT22;31823;47.032;8.310;2023-12-20T02:00:36;2.20;99.90
46085;DHT22;31823;47.032;8.310;2023-12-20T02:03:03;2.30;99.90
46085;DHT22;31823;47.032;8.310;2023-12-20T02:05:30;2.30;99.90
46085;DHT22;31823;47.032;8.310;2023-12-20T02:07:56;2.50;99.90
46085;DHT22;31823;47.032;8.310;2023-12-20T02:10:22;2.60;99.90
46085;DHT22;31823;47.032;8.310;2023-12-20T02:12:48;2.70;99.90
46085;DHT22;31823;47.032;8.310;2023-12-20T02:15:14;2.60;99.90
46085;DHT22;31823;47.032;8.310;2023-12-20T02:17:40;2.60;99.90
46085;DHT22;31823;47.032;8.310;2023-12-20T02:20:06;2.80;99.90
46085;DHT22;31823;47.032;8.310;2023-12-20T02:22:32;2.90;99.90
46085;DHT22;31823;47.032;8.310;2023-12-20T02:24:57;2.90;99.90
46085;DHT22;31823;47.032;8.310;2023-12-20T02:27:24;2.90;99.90
46085;DHT22;31823;47.032;8.310;2023-12-20T02:29:50;3.00;99.90
46085;DHT22;31823;47.032;8.310;2023-12-20T02:32:20;2.80;99.90
46085;DHT22;31823;47.032;8.310;2023-12-20T02:34:47;2.90;99.90
46085;DHT22;31823;47.032;8.310;2023-12-20T02:37:13;3.00;99.90
46085;DHT22;31823;47.032;8.310;2023-12-20T02:39:39;3.00;99.90
46085;DHT22;31823;47.032;8.310;2023-12-20T02:42:04;3.00;99.90
46085;DHT22;31823;47.032;8.310;2023-12-20T02:44:30;2.90;99.90
46085;DHT22;31823;47.032;8.310;2023-12-20T02:46:56;2.80;99.90
46085;DHT22;31823;47.032;8.310;2023-12-20T02:49:21;2.80;99.90
46085;DHT22;31823;47.032;8.310;2023-12-20T02:51:47;2.80;99.90
46085;DHT22;31823;47.032;8.310;2023-12-20T02:54:12;2.80;99.90
46085;DHT22;31823;47.032;8.310;2023-12-20T02:56:38;2.90;99.90
46085;DHT22;31823;47.032;8.310;2023-12-20T02:59:04;2.90;99.90
46085;DHT22;31823;47.032;8.310;2023-12-20T03:01:31;2.90;99.90
46085;DHT22;31823;47.032;8.310;2023-12-20T03:03:57;2.90;99.90
46085;DHT22;31823;47.032;8.310;2023-12-20T03:06:22;2.90;99.90
46085;DHT22;31823;47.032;8.310;2023-12-20T03:08:48;3.00;99.90
46085;DHT22;31823;47.032;8.310;2023-12-20T03:11:13;3.00;99.90
46085;DHT22;31823;47.032;8.310;2023-12-20T03:13:39;3.00;99.90
46085;DHT22;31823;47.032;8.310;2023-12-20T03:16:12;3.00;99.90
46085;DHT22;31823;47.032;8.310;2023-12-20T03:18:38;3.00;99.90
46085;DHT22;31823;47.032;8.310;2023-12-20T03:21:05;3.00;99.90
46085;DHT22;31823;47.032;8.310;2023-12-20T03:23:30;3.00;99.90
46085;DHT22;31823;47.032;8.310;2023-12-20T03:25:58;3.00;99.90
46085;DHT22;31823;47.032;8.310;2023-12-20T03:28:24;3.00;99.90
46085;DHT22;31823;47.032;8.310;2023-12-20T03:30:49;3.00;99.90
46085;DHT22;31823;47.032;8.310;2023-12-20T03:33:15;3.00;99.90
46085;DHT22;31823;47.032;8.310;2023-12-20T03:35:41;3.00;99.90
46085;DHT22;31823;47.032;8.310;2023-12-20T03:38:06;3.00;99.90
46085;DHT22;31823;47.032;8.310;2023-12-20T03:40:32;2.90;99.90
46085;DHT22;31823;47.032;8.310;2023-12-20T03:42:58;2.90;99.90
46085;DHT22;31823;47.032;8.310;2023-12-20T03:45:23;2.90;99.90
46085;DHT22;31823;47.032;8.310;2023-12-20T03:47:49;2.90;99.90
46085;DHT22;31823;47.032;8.310;2023-12-20T03:50:15;2.90;99.90
46085;DHT22;31823;47.032;8.310;2023-12-20T03:52:41;2.90;99.90
46085;DHT22;31823;47.032;8.310;2023-12-20T03:55:07;2.90;99.90
46085;DHT22;31823;47.032;8.310;2023-12-20T03:57:32;2.90;99.90
46085;DHT22;31823;47.032;8.310;2023-12-20T03:59:58;2.90;99.90
46085;DHT22;31823;47.032;8.310;2023-12-20T04:02:23;2.90;99.90
46085;DHT22;31823;47.032;8.310;2023-12-20T04:04:49;2.90;99.90
46085;DHT22;31823;47.032;8.310;2023-12-20T04:07:15;3.00;99.90
46085;DHT22;31823;47.032;8.310;2023-12-20T04:09:41;3.10;99.90
46085;DHT22;31823;47.032;8.310;2023-12-20T04:12:07;3.20;99.90
46085;DHT22;31823;47.032;8.310;2023-12-20T04:14:32;3.30;99.90
46085;DHT22;31823;47.032;8.310;2023-12-20T04:16:58;3.30;99.90
46085;DHT22;31823;47.032;8.310;2023-12-20T04:19:24;3.20;99.90
46085;DHT22;31823;47.032;8.310;2023-12-20T04:21:49;3.20;99.90
46085;DHT22;31823;47.032;8.310;2023-12-20T04:24:15;3.20;99.90
46085;DHT22;31823;47.032;8.310;2023-12-20T04:26:41;3.20;99.90
46085;DHT22;31823;47.032;8.310;2023-12-20T04:29:06;3.20;99.90
46085;DHT22;31823;47.032;8.310;2023-12-20T04:31:32;3.20;99.90
46085;DHT22;31823;47.032;8.310;2023-12-20T04:33:57;3.20;99.90
46085;DHT22;31823;47.032;8.310;2023-12-20T04:36:23;3.30;99.90
46085;DHT22;31823;47.032;8.310;2023-12-20T04:38:52;3.30;99.90
46085;DHT22;31823;47.032;8.310;2023-12-20T04:41:18;3.20;99.90
46085;DHT22;31823;47.032;8.310;2023-12-20T04:43:44;3.20;99.90
46085;DHT22;31823;47.032;8.310;2023-12-20T04:46:10;3.20;99.90
46085;DHT22;31823;47.032;8.310;2023-12-20T04:48:35;3.20;99.90
46085;DHT22;31823;47.032;8.310;2023-12-20T04:51:01;3.20;99.90
46085;DHT22;31823;47.032;8.310;2023-12-20T04:53:26;3.10;99.90
46085;DHT22;31823;47.032;8.310;2023-12-20T04:55:53;3.10;99.90
46085;DHT22;31823;47.032;8.310;2023-12-20T04:58:19;3.10;99.90
46085;DHT22;31823;47.032;8.310;2023-12-20T05:00:44;3.20;99.90
46085;DHT22;31823;47.032;8.310;2023-12-20T05:03:10;3.20;99.90
46085;DHT22;31823;47.032;8.310;2023-12-20T05:05:36;3.10;99.90
46085;DHT22;31823;47.032;8.310;2023-12-20T05:08:01;3.10;99.90
46085;DHT22;31823;47.032;8.310;2023-12-20T05:10:27;3.20;99.90
46085;DHT22;31823;47.032;8.310;2023-12-20T05:12:53;3.10;99.90
46085;DHT22;31823;47.032;8.310;2023-12-20T05:15:19;3.10;99.90
46085;DHT22;31823;47.032;8.310;2023-12-20T05:17:45;3.20;99.90
46085;DHT22;31823;47.032;8.310;2023-12-20T05:20:10;3.20;99.90
46085;DHT22;31823;47.032;8.310;2023-12-20T05:22:36;3.20;99.90
46085;DHT22;31823;47.032;8.310;2023-12-20T05:25:02;3.20;99.90
46085;DHT22;31823;47.032;8.310;2023-12-20T05:27:27;3.20;99.90
46085;DHT22;31823;47.032;8.310;2023-12-20T05:29:53;3.20;99.90
46085;DHT22;31823;47.032;8.310;2023-12-20T05:32:23;3.20;99.90
46085;DHT22;31823;47.032;8.310;2023-12-20T05:34:48;3.20;99.90
46085;DHT22;31823;47.032;8.310;2023-12-20T05:37:14;3.20;99.90
46085;DHT22;31823;47.032;8.310;2023-12-20T05:39:39;3.20;99.90
46085;DHT22;31823;47.032;8.310;2023-12-20T05:42:05;3.20;99.90
46085;DHT22;31823;47.032;8.310;2023-12-20T05:44:31;3.20;99.90
46085;DHT22;31823;47.032;8.310;2023-12-20T05:46:56;3.20;99.90
46085;DHT22;31823;47.032;8.310;2023-12-20T05:49:22;3.20;99.90
46085;DHT22;31823;47.032;8.310;2023-12-20T05:51:48;3.30;99.90
46085;DHT22;31823;47.032;8.310;2023-12-20T05:54:13;3.20;99.90
46085;DHT22;31823;47.032;8.310;2023-12-20T05:56:39;3.20;99.90
46085;DHT22;31823;47.032;8.310;2023-12-20T05:59:04;3.20;99.90
46085;DHT22;31823;47.032;8.310;2023-12-20T06:01:33;3.20;99.90
46085;DHT22;31823;47.032;8.310;2023-12-20T06:03:59;3.20;99.90
46085;DHT22;31823;47.032;8.310;2023-12-20T06:06:27;3.20;99.90
46085;DHT22;31823;47.032;8.310;2023-12-20T06:08:53;3.20;99.90
46085;DHT22;31823;47.032;8.310;2023-12-20T06:11:19;3.20;99.90
46085;DHT22;31823;47.032;8.310;2023-12-20T06:13:44;3.30;99.90
46085;DHT22;31823;47.032;8.310;2023-12-20T06:16:12;3.30;99.90
46085;DHT22;31823;47.032;8.310;2023-12-20T06:18:38;3.30;99.90
46085;DHT22;31823;47.032;8.310;2023-12-20T06:21:04;3.30;99.90
46085;DHT22;31823;47.032;8.310;2023-12-20T06:23:29;3.30;99.90
46085;DHT22;31823;47.032;8.310;2023-12-20T06:25:55;3.30;99.90
46085;DHT22;31823;47.032;8.310;2023-12-20T06:28:21;3.30;99.90
46085;DHT22;31823;47.032;8.310;2023-12-20T06:30:46;3.30;99.90
46085;DHT22;31823;47.032;8.310;2023-12-20T06:33:14;3.30;99.90
46085;DHT22;31823;47.032;8.310;2023-12-20T06:35:40;3.30;99.90
46085;DHT22;31823;47.032;8.310;2023-12-20T06:38:05;3.40;99.90
46085;DHT22;31823;47.032;8.310;2023-12-20T06:40:31;3.30;99.90
46085;DHT22;31823;47.032;8.310;2023-12-20T06:42:57;3.40;99.90
46085;DHT22;31823;47.032;8.310;2023-12-20T06:45:22;3.30;99.90
46085;DHT22;31823;47.032;8.310;2023-12-20T06:47:48;3.40;99.90
46085;DHT22;31823;47.032;8.310;2023-12-20T06:50:13;3.40;99.90
46085;DHT22;31823;47.032;8.310;2023-12-20T06:52:39;3.50;99.90
46085;DHT22;31823;47.032;8.310;2023-12-20T06:55:05;3.50;99.90
46085;DHT22;31823;47.032;8.310;2023-12-20T06:57:31;3.40;99.90
46085;DHT22;31823;47.032;8.310;2023-12-20T06:59:56;3.60;99.90
46085;DHT22;31823;47.032;8.310;2023-12-20T07:02:23;3.60;99.90
46085;DHT22;31823;47.032;8.310;2023-12-20T07:04:48;3.60;99.90
46085;DHT22;31823;47.032;8.310;2023-12-20T07:07:14;3.60;99.90
46085;DHT22;31823;47.032;8.310;2023-12-20T07:09:40;3.70;99.90
46085;DHT22;31823;47.032;8.310;2023-12-20T07:12:08;3.80;99.90
46085;DHT22;31823;47.032;8.310;2023-12-20T07:14:34;3.90;99.90
46085;DHT22;31823;47.032;8.310;2023-12-20T07:16:59;3.90;99.90
46085;DHT22;31823;47.032;8.310;2023-12-20T07:19:25;3.90;99.90
46085;DHT22;31823;47.032;8.310;2023-12-20T07:21:50;3.90;99.90
46085;DHT22;31823;47.032;8.310;2023-12-20T07:24:16;3.90;99.90
46085;DHT22;31823;47.032;8.310;2023-12-20T07:26:41;3.80;99.90
46085;DHT22;31823;47.032;8.310;2023-12-20T07:29:08;3.80;99.90
46085;DHT22;31823;47.032;8.310;2023-12-20T07:31:34;3.80;99.90
46085;DHT22;31823;47.032;8.310;2023-12-20T07:34:00;3.80;99.90
46085;DHT22;31823;47.032;8.310;2023-12-20T07:36:25;3.80;99.90
46085;DHT22;31823;47.032;8.310;2023-12-20T07:38:51;3.80;99.90
46085;DHT22;31823;47.032;8.310;2023-12-20T07:41:17;3.90;99.90
46085;DHT22;31823;47.032;8.310;2023-12-20T07:43:42;3.90;99.90
46085;DHT22;31823;47.032;8.310;2023-12-20T07:46:08;3.90;99.90
46085;DHT22;31823;47.032;8.310;2023-12-20T07:48:35;3.90;99.90
46085;DHT22;31823;47.032;8.310;2023-12-20T07:51:01;3.90;99.90
46085;DHT22;31823;47.032;8.310;2023-12-20T07:53:27;3.90;99.90
46085;DHT22;31823;47.032;8.310;2023-12-20T07:55:52;3.90;99.90
46085;DHT22;31823;47.032;8.310;2023-12-20T07:58:18;3.90;99.90
46085;DHT22;31823;47.032;8.310;2023-12-20T08:00:44;4.00;99.90
46085;DHT22;31823;47.032;8.310;2023-12-20T08:03:10;4.00;99.90
46085;DHT22;31823;47.032;8.310;2023-12-20T08:05:35;3.90;99.90
46085;DHT22;31823;47.032;8.310;2023-12-20T08:08:01;3.90;99.90
46085;DHT22;31823;47.032;8.310;2023-12-20T08:10:27;3.90;99.90
46085;DHT22;31823;47.032;8.310;2023-12-20T08:12:55;3.80;99.90
46085;DHT22;31823;47.032;8.310;2023-12-20T08:15:20;3.80;99.90
46085;DHT22;31823;47.032;8.310;2023-12-20T08:17:46;3.90;99.90
46085;DHT22;31823;47.032;8.310;2023-12-20T08:20:12;3.80;99.90
46085;DHT22;31823;47.032;8.310;2023-12-20T08:22:37;3.80;99.90
46085;DHT22;31823;47.032;8.310;2023-12-20T08:25:03;3.90;99.90
46085;DHT22;31823;47.032;8.310;2023-12-20T08:27:29;3.90;99.90
46085;DHT22;31823;47.032;8.310;2023-12-20T08:29:57;3.90;99.90
46085;DHT22;31823;47.032;8.310;2023-12-20T08:32:25;3.90;99.90
46085;DHT22;31823;47.032;8.310;2023-12-20T08:34:51;4.00;99.90
46085;DHT22;31823;47.032;8.310;2023-12-20T08:37:17;4.00;99.90
46085;DHT22;31823;47.032;8.310;2023-12-20T08:39:43;4.00;99.90
46085;DHT22;31823;47.032;8.310;2023-12-20T08:42:09;4.00;99.90
46085;DHT22;31823;47.032;8.310;2023-12-20T08:44:35;4.10;99.90
46085;DHT22;31823;47.032;8.310;2023-12-20T08:47:00;4.10;99.90
46085;DHT22;31823;47.032;8.310;2023-12-20T08:49:26;4.10;99.90
46085;DHT22;31823;47.032;8.310;2023-12-20T08:51:53;4.10;99.90
46085;DHT22;31823;47.032;8.310;2023-12-20T08:54:19;4.10;99.90
46085;DHT22;31823;47.032;8.310;2023-12-20T08:56:45;4.10;99.90
46085;DHT22;31823;47.032;8.310;2023-12-20T08:59:11;4.10;99.90
46085;DHT22;31823;47.032;8.310;2023-12-20T09:01:37;4.10;99.90
46085;DHT22;31823;47.032;8.310;2023-12-20T09:04:03;4.20;99.90
46085;DHT22;31823;47.032;8.310;2023-12-20T09:06:28;4.10;99.90
46085;DHT22;31823;47.032;8.310;2023-12-20T09:08:54;4.20;99.90
46085;DHT22;31823;47.032;8.310;2023-12-20T09:11:20;4.20;99.90
46085;DHT22;31823;47.032;8.310;2023-12-20T09:13:45;4.20;99.90
46085;DHT22;31823;47.032;8.310;2023-12-20T09:16:11;4.20;99.90
46085;DHT22;31823;47.032;8.310;2023-12-20T09:18:38;4.20;99.90
46085;DHT22;31823;47.032;8.310;2023-12-20T09:21:04;4.20;99.90
46085;DHT22;31823;47.032;8.310;2023-12-20T09:23:29;4.20;99.90
46085;DHT22;31823;47.032;8.310;2023-12-20T09:25:55;4.20;99.90
46085;DHT22;31823;47.032;8.310;2023-12-20T09:28:21;4.30;99.90
46085;DHT22;31823;47.032;8.310;2023-12-20T09:30:46;4.30;99.90
46085;DHT22;31823;47.032;8.310;2023-12-20T09:33:13;4.30;99.90
46085;DHT22;31823;47.032;8.310;2023-12-20T09:35:39;4.30;99.90
46085;DHT22;31823;47.032;8.310;2023-12-20T09:38:05;4.30;99.90
46085;DHT22;31823;47.032;8.310;2023-12-20T09:40:32;4.30;99.90
46085;DHT22;31823;47.032;8.310;2023-12-20T09:43:14;4.30;99.90
46085;DHT22;31823;47.032;8.310;2023-12-20T09:45:42;4.40;99.90
46085;DHT22;31823;47.032;8.310;2023-12-20T09:48:11;4.40;99.90
46085;DHT22;31823;47.032;8.310;2023-12-20T09:50:37;4.40;99.90
46085;DHT22;31823;47.032;8.310;2023-12-20T09:53:05;4.40;99.90
46085;DHT22;31823;47.032;8.310;2023-12-20T09:55:36;4.40;99.90
46085;DHT22;31823;47.032;8.310;2023-12-20T09:58:01;4.50;99.90
46085;DHT22;31823;47.032;8.310;2023-12-20T10:00:27;4.50;99.90
46085;DHT22;31823;47.032;8.310;2023-12-20T10:02:57;4.60;99.90
46085;DHT22;31823;47.032;8.310;2023-12-20T10:05:30;4.60;99.90
46085;DHT22;31823;47.032;8.310;2023-12-20T10:07:56;4.60;99.90
46085;DHT22;31823;47.032;8.310;2023-12-20T10:10:23;4.70;99.90
46085;DHT22;31823;47.032;8.310;2023-12-20T10:13:05;4.80;99.90
46085;DHT22;31823;47.032;8.310;2023-12-20T10:15:33;4.80;99.90
46085;DHT22;31823;47.032;8.310;2023-12-20T10:17:58;4.80;99.90
46085;DHT22;31823;47.032;8.310;2023-12-20T10:20:25;4.90;99.90
46085;DHT22;31823;47.032;8.310;2023-12-20T10:22:51;4.90;99.90
46085;DHT22;31823;47.032;8.310;2023-12-20T10:25:19;4.90;99.90
46085;DHT22;31823;47.032;8.310;2023-12-20T10:27:45;4.90;99.90
46085;DHT22;31823;47.032;8.310;2023-12-20T10:30:11;4.90;99.90
46085;DHT22;31823;47.032;8.310;2023-12-20T10:32:37;4.90;99.90
46085;DHT22;31823;47.032;8.310;2023-12-20T10:35:03;5.00;99.90
46085;DHT22;31823;47.032;8.310;2023-12-20T10:37:29;5.00;99.90
46085;DHT22;31823;47.032;8.310;2023-12-20T10:39:55;5.10;99.90
46085;DHT22;31823;47.032;8.310;2023-12-20T10:42:27;5.10;99.90
46085;DHT22;31823;47.032;8.310;2023-12-20T10:44:52;5.20;99.90
46085;DHT22;31823;47.032;8.310;2023-12-20T10:47:20;5.20;99.90
46085;DHT22;31823;47.032;8.310;2023-12-20T10:49:46;5.30;99.90
46085;DHT22;31823;47.032;8.310;2023-12-20T10:52:13;5.40;99.90
46085;DHT22;31823;47.032;8.310;2023-12-20T10:54:41;5.40;99.90
46085;DHT22;31823;47.032;8.310;2023-12-20T10:57:07;5.50;99.90
46085;DHT22;31823;47.032;8.310;2023-12-20T10:59:39;5.50;99.90
46085;DHT22;31823;47.032;8.310;2023-12-20T11:02:05;5.70;99.90
46085;DHT22;31823;47.032;8.310;2023-12-20T11:04:39;5.80;99.90
46085;DHT22;31823;47.032;8.310;2023-12-20T11:07:35;6.10;99.90
46085;DHT22;31823;47.032;8.310;2023-12-20T11:10:19;6.30;99.90
46085;DHT22;31823;47.032;8.310;2023-12-20T11:12:53;6.50;99.90
46085;DHT22;31823;47.032;8.310;2023-12-20T11:15:20;6.80;99.90
46085;DHT22;31823;47.032;8.310;2023-12-20T11:17:47;7.00;99.90
46085;DHT22;31823;47.032;8.310;2023-12-20T11:20:23;6.60;99.90
46085;DHT22;31823;47.032;8.310;2023-12-20T11:22:55;6.80;99.90
46085;DHT22;31823;47.032;8.310;2023-12-20T11:25:22;6.80;99.90
46085;DHT22;31823;47.032;8.310;2023-12-20T11:28:11;6.80;99.90
46085;DHT22;31823;47.032;8.310;2023-12-20T11:30:57;6.40;99.90
46085;DHT22;31823;47.032;8.310;2023-12-20T11:33:37;6.30;99.90
46085;DHT22;31823;47.032;8.310;2023-12-20T11:36:13;6.40;99.90
46085;DHT22;31823;47.032;8.310;2023-12-20T11:38:58;6.50;99.90
46085;DHT22;31823;47.032;8.310;2023-12-20T11:41:26;6.50;99.90
46085;DHT22;31823;47.032;8.310;2023-12-20T11:43:55;6.60;99.90
46085;DHT22;31823;47.032;8.310;2023-12-20T11:46:22;6.70;99.90
46085;DHT22;31823;47.032;8.310;2023-12-20T11:48:48;6.80;99.90
46085;DHT22;31823;47.032;8.310;2023-12-20T11:51:13;6.80;99.90
46085;DHT22;31823;47.032;8.310;2023-12-20T11:53:40;6.80;99.90
46085;DHT22;31823;47.032;8.310;2023-12-20T11:56:07;6.70;99.90
46085;DHT22;31823;47.032;8.310;2023-12-20T11:58:34;6.60;99.90
46085;DHT22;31823;47.032;8.310;2023-12-20T12:01:00;6.50;99.90
46085;DHT22;31823;47.032;8.310;2023-12-20T12:03:28;6.50;99.90
46085;DHT22;31823;47.032;8.310;2023-12-20T12:05:53;6.50;99.90
46085;DHT22;31823;47.032;8.310;2023-12-20T12:08:19;6.60;99.90
46085;DHT22;31823;47.032;8.310;2023-12-20T12:10:45;6.70;99.90
46085;DHT22;31823;47.032;8.310;2023-12-20T12:13:14;6.70;99.90
46085;DHT22;31823;47.032;8.310;2023-12-20T12:15:40;6.60;99.90
46085;DHT22;31823;47.032;8.310;2023-12-20T12:18:07;6.50;99.90
46085;DHT22;31823;47.032;8.310;2023-12-20T12:20:33;6.60;99.90
46085;DHT22;31823;47.032;8.310;2023-12-20T12:23:03;6.60;99.90
46085;DHT22;31823;47.032;8.310;2023-12-20T12:25:30;6.60;99.90
46085;DHT22;31823;47.032;8.310;2023-12-20T12:28:00;6.60;99.90
46085;DHT22;31823;47.032;8.310;2023-12-20T12:30:26;6.60;99.90
46085;DHT22;31823;47.032;8.310;2023-12-20T12:32:53;6.40;99.90
46085;DHT22;31823;47.032;8.310;2023-12-20T12:35:19;6.50;99.90
46085;DHT22;31823;47.032;8.310;2023-12-20T12:37:45;6.40;99.90
46085;DHT22;31823;47.032;8.310;2023-12-20T12:40:16;6.40;99.90
46085;DHT22;31823;47.032;8.310;2023-12-20T12:42:43;6.40;99.90
46085;DHT22;31823;47.032;8.310;2023-12-20T12:45:09;6.30;99.90
46085;DHT22;31823;47.032;8.310;2023-12-20T12:47:35;6.20;99.90
46085;DHT22;31823;47.032;8.310;2023-12-20T12:50:02;6.10;99.90
46085;DHT22;31823;47.032;8.310;2023-12-20T12:52:27;6.10;99.90
46085;DHT22;31823;47.032;8.310;2023-12-20T12:54:53;6.00;99.90
46085;DHT22;31823;47.032;8.310;2023-12-20T12:57:19;6.00;99.90
46085;DHT22;31823;47.032;8.310;2023-12-20T12:59:45;6.00;99.90
46085;DHT22;31823;47.032;8.310;2023-12-20T13:02:12;6.00;99.90
46085;DHT22;31823;47.032;8.310;2023-12-20T13:04:39;6.00;99.90
46085;DHT22;31823;47.032;8.310;2023-12-20T13:07:05;6.00;99.90
46085;DHT22;31823;47.032;8.310;2023-12-20T13:09:31;5.90;99.90
46085;DHT22;31823;47.032;8.310;2023-12-20T13:11:57;5.90;99.90
46085;DHT22;31823;47.032;8.310;2023-12-20T13:14:22;5.80;99.90
46085;DHT22;31823;47.032;8.310;2023-12-20T13:16:48;5.80;99.90
46085;DHT22;31823;47.032;8.310;2023-12-20T13:19:14;5.80;99.90
46085;DHT22;31823;47.032;8.310;2023-12-20T13:21:40;5.70;99.90
46085;DHT22;31823;47.032;8.310;2023-12-20T13:24:06;5.70;99.90
46085;DHT22;31823;47.032;8.310;2023-12-20T13:26:32;5.70;99.90
46085;DHT22;31823;47.032;8.310;2023-12-20T13:28:58;5.70;99.90
46085;DHT22;31823;47.032;8.310;2023-12-20T13:31:23;5.60;99.90
46085;DHT22;31823;47.032;8.310;2023-12-20T13:33:49;5.60;99.90
46085;DHT22;31823;47.032;8.310;2023-12-20T13:36:15;5.60;99.90
46085;DHT22;31823;47.032;8.310;2023-12-20T13:38:40;5.60;99.90
46085;DHT22;31823;47.032;8.310;2023-12-20T13:41:06;5.50;99.90
46085;DHT22;31823;47.032;8.310;2023-12-20T13:43:32;5.60;99.90
46085;DHT22;31823;47.032;8.310;2023-12-20T13:45:58;5.50;99.90
46085;DHT22;31823;47.032;8.310;2023-12-20T13:48:24;5.50;99.90
46085;DHT22;31823;47.032;8.310;2023-12-20T13:50:50;5.40;99.90
46085;DHT22;31823;47.032;8.310;2023-12-20T13:53:15;5.30;99.90
46085;DHT22;31823;47.032;8.310;2023-12-20T13:55:41;5.30;99.90
46085;DHT22;31823;47.032;8.310;2023-12-20T13:58:07;5.30;99.90
46085;DHT22;31823;47.032;8.310;2023-12-20T14:00:33;5.30;99.90
46085;DHT22;31823;47.032;8.310;2023-12-20T14:02:58;5.30;99.90
46085;DHT22;31823;47.032;8.310;2023-12-20T14:05:24;5.20;99.90
46085;DHT22;31823;47.032;8.310;2023-12-20T14:07:49;5.20;99.90
46085;DHT22;31823;47.032;8.310;2023-12-20T14:10:16;5.20;99.90
46085;DHT22;31823;47.032;8.310;2023-12-20T14:12:41;5.10;99.90
46085;DHT22;31823;47.032;8.310;2023-12-20T14:15:08;5.10;99.90
46085;DHT22;31823;47.032;8.310;2023-12-20T14:17:37;5.10;99.90
46085;DHT22;31823;47.032;8.310;2023-12-20T14:20:04;5.10;99.90
46085;DHT22;31823;47.032;8.310;2023-12-20T14:22:30;5.10;99.90
46085;DHT22;31823;47.032;8.310;2023-12-20T14:24:55;5.00;99.90
46085;DHT22;31823;47.032;8.310;2023-12-20T14:27:22;5.00;99.90
46085;DHT22;31823;47.032;8.310;2023-12-20T14:29:50;5.00;99.90
46085;DHT22;31823;47.032;8.310;2023-12-20T14:32:15;5.00;99.90
46085;DHT22;31823;47.032;8.310;2023-12-20T14:34:41;4.90;99.90
46085;DHT22;31823;47.032;8.310;2023-12-20T14:37:07;5.00;99.90
46085;DHT22;31823;47.032;8.310;2023-12-20T14:39:33;4.90;99.90
46085;DHT22;31823;47.032;8.310;2023-12-20T14:41:58;4.80;99.90
46085;DHT22;31823;47.032;8.310;2023-12-20T14:44:27;4.70;99.90
46085;DHT22;31823;47.032;8.310;2023-12-20T14:46:52;4.70;99.90
46085;DHT22;31823;47.032;8.310;2023-12-20T14:49:18;4.70;99.90
46085;DHT22;31823;47.032;8.310;2023-12-20T14:51:44;4.60;99.90
46085;DHT22;31823;47.032;8.310;2023-12-20T14:54:10;4.60;99.90
46085;DHT22;31823;47.032;8.310;2023-12-20T14:56:35;4.50;99.90
46085;DHT22;31823;47.032;8.310;2023-12-20T14:59:01;4.50;99.90
46085;DHT22;31823;47.032;8.310;2023-12-20T15:01:26;4.50;99.90
46085;DHT22;31823;47.032;8.310;2023-12-20T15:03:52;4.50;99.90
46085;DHT22;31823;47.032;8.310;2023-12-20T15:06:18;4.50;99.90
46085;DHT22;31823;47.032;8.310;2023-12-20T15:08:45;4.40;99.90
46085;DHT22;31823;47.032;8.310;2023-12-20T15:11:11;4.40;99.90
46085;DHT22;31823;47.032;8.310;2023-12-20T15:13:37;4.30;99.90
46085;DHT22;31823;47.032;8.310;2023-12-20T15:16:04;4.20;99.90
46085;DHT22;31823;47.032;8.310;2023-12-20T15:18:31;4.20;99.90
46085;DHT22;31823;47.032;8.310;2023-12-20T15:20:57;4.10;99.90
46085;DHT22;31823;47.032;8.310;2023-12-20T15:23:23;4.10;99.90
46085;DHT22;31823;47.032;8.310;2023-12-20T15:25:52;4.00;99.90
46085;DHT22;31823;47.032;8.310;2023-12-20T15:28:17;4.00;99.90
46085;DHT22;31823;47.032;8.310;2023-12-20T15:30:43;3.90;99.90
46085;DHT22;31823;47.032;8.310;2023-12-20T15:33:09;3.90;99.90
46085;DHT22;31823;47.032;8.310;2023-12-20T15:35:34;3.90;99.90
46085;DHT22;31823;47.032;8.310;2023-12-20T15:38:00;4.00;99.90
46085;DHT22;31823;47.032;8.310;2023-12-20T15:40:26;4.00;99.90